Time;durP1;ratioP1;P1;durP2;ratioP2;P2;SDS_P1;SDS_P2;PMS_P1;PMS_P2;Temp;Humidity;BMP_temperature;BMP_pressure;BME280_temperature;BME280_humidity;BME280_pressure;Samples;Min_cycle;Max_cycle;Signal;HPM_P1;HPM_P2
2023/04/19 00:00:16;;;;;;;12.27;9.73;;;;;;;;;;5068599;28;20185;-81
2023/04/19 00:02:42;;;;;;;10.70;9.27;;;;;;;;;;5069184;28;20295;-80
2023/04/19 00:05:10;;;;;;;11.20;9.73;;;;;;;;;;5069159;28;20178;-81
2023/04/19 00:07:36;;;;;;;12.07;9.10;;;;;;;;;;5070481;28;20248;-80
2023/04/19 00:10:02;;;;;;;11.47;9.10;;;;;;;;;;5070343;28;20343;-81
2023/04/19 00:12:28;;;;;;;11.93;8.90;;;;;;;;;;5068886;28;20727;-81
2023/04/19 00:14:54;;;;;;;9.67;8.53;;;;;;;;;;5069358;28;21441;-81
2023/04/19 00:17:21;;;;;;;11.07;8.37;;;;;;;;;;5069216;28;20177;-80
2023/04/19 00:19:47;;;;;;;9.53;8.30;;;;;;;;;;5068738;28;20195;-80
2023/04/19 00:22:13;;;;;;;11.50;8.93;;;;;;;;;;5069464;28;20208;-80
2023/04/19 00:24:39;;;;;;;10.23;8.20;;;;;;;;;;5069339;28;20208;-80
2023/04/19 00:27:05;;;;;;;9.33;8.23;;;;;;;;;;5068922;28;20203;-80
2023/04/19 00:29:31;;;;;;;7.93;7.13;;;;;;;;;;5070089;28;20240;-79
2023/04/19 00:31:57;;;;;;;10.17;8.47;;;;;;;;;;5069059;28;20687;-81
2023/04/19 00:34:23;;;;;;;8.67;7.77;;;;;;;;;;5069650;28;20181;-81
2023/04/19 00:36:49;;;;;;;9.60;8.30;;;;;;;;;;5068959;28;20181;-80
2023/04/19 00:39:15;;;;;;;10.97;7.90;;;;;;;;;;5070185;28;20193;-80
2023/04/19 00:41:41;;;;;;;11.03;7.50;;;;;;;;;;5068875;28;20177;-80
2023/04/19 00:44:07;;;;;;;7.87;6.93;;;;;;;;;;5068823;28;20247;-80
2023/04/19 00:46:33;;;;;;;8.73;7.73;;;;;;;;;;5069809;28;20165;-80
2023/04/19 00:48:59;;;;;;;8.77;7.87;;;;;;;;;;5068509;28;20209;-80
2023/04/19 00:51:26;;;;;;;9.40;8.37;;;;;;;;;;5068571;28;20177;-80
2023/04/19 00:53:52;;;;;;;11.00;9.23;;;;;;;;;;5067849;28;20550;-80
2023/04/19 00:56:18;;;;;;;11.20;9.57;;;;;;;;;;5068292;28;20261;-81
2023/04/19 00:58:46;;;;;;;12.40;9.90;;;;;;;;;;5069418;28;20184;-80
2023/04/19 01:01:12;;;;;;;11.37;9.73;;;;;;;;;;5067793;28;20579;-80
2023/04/19 01:03:38;;;;;;;12.53;9.97;;;;;;;;;;5068360;28;20181;-80
2023/04/19 01:06:04;;;;;;;12.90;11.27;;;;;;;;;;5069629;28;20185;-80
2023/04/19 01:08:30;;;;;;;10.93;9.70;;;;;;;;;;5069299;28;20181;-80
2023/04/19 01:10:56;;;;;;;12.93;10.10;;;;;;;;;;5069260;28;20184;-79
2023/04/19 01:13:28;;;;;;;12.33;10.03;;;;;;;;;;5069389;28;20587;-80
2023/04/19 01:15:54;;;;;;;14.87;10.20;;;;;;;;;;5067396;28;20268;-80
2023/04/19 01:18:23;;;;;;;11.03;9.50;;;;;;;;;;5067913;28;20653;-80
2023/04/19 01:20:49;;;;;;;10.77;9.63;;;;;;;;;;5068287;28;20534;-80
2023/04/19 01:23:15;;;;;;;10.70;9.50;;;;;;;;;;5067923;28;20263;-80
2023/04/19 01:25:41;;;;;;;14.67;11.07;;;;;;;;;;5070231;28;20169;-80
2023/04/19 01:28:07;;;;;;;14.03;10.40;;;;;;;;;;5068276;28;20564;-80
2023/04/19 01:30:34;;;;;;;11.47;9.97;;;;;;;;;;5067692;28;20530;-80
2023/04/19 01:33:00;;;;;;;13.17;10.47;;;;;;;;;;5068328;28;20238;-80
2023/04/19 01:35:26;;;;;;;11.40;10.23;;;;;;;;;;5067931;28;20284;-80
2023/04/19 01:37:54;;;;;;;11.57;9.73;;;;;;;;;;5069003;28;20797;-80
2023/04/19 01:40:21;;;;;;;12.53;10.27;;;;;;;;;;5068508;28;20189;-80
2023/04/19 01:42:46;;;;;;;11.43;10.13;;;;;;;;;;5067808;28;20629;-80
2023/04/19 01:45:12;;;;;;;12.60;11.40;;;;;;;;;;5068381;28;20189;-80
2023/04/19 01:47:38;;;;;;;12.43;11.13;;;;;;;;;;5067969;28;20252;-80
2023/04/19 01:50:05;;;;;;;12.57;11.27;;;;;;;;;;5067136;28;20252;-80
2023/04/19 01:52:31;;;;;;;11.93;10.73;;;;;;;;;;5068449;28;20169;-80
2023/04/19 01:54:57;;;;;;;14.23;11.70;;;;;;;;;;5068894;28;20200;-80
2023/04/19 01:57:23;;;;;;;11.80;10.50;;;;;;;;;;5067349;28;20649;-80
2023/04/19 01:59:49;;;;;;;13.70;12.17;;;;;;;;;;5067245;28;20258;-80
2023/04/19 02:02:15;;;;;;;16.80;13.07;;;;;;;;;;5067413;28;20184;-81
2023/04/19 02:04:41;;;;;;;14.90;12.30;;;;;;;;;;5068759;28;20184;-81
2023/04/19 02:07:07;;;;;;;14.33;11.97;;;;;;;;;;5067480;28;20177;-80
2023/04/19 02:09:36;;;;;;;19.97;14.47;;;;;;;;;;5068341;28;20558;-81
2023/04/19 02:12:03;;;;;;;9.13;7.73;;;;;;;;;;5068446;28;20181;-81
2023/04/19 02:14:29;;;;;;;10.97;7.87;;;;;;;;;;5067006;28;20179;-80
2023/04/19 02:16:55;;;;;;;9.63;8.00;;;;;;;;;;5069546;28;20167;-80
2023/04/19 02:19:21;;;;;;;9.87;8.13;;;;;;;;;;5068647;28;20189;-80
2023/04/19 02:21:47;;;;;;;11.97;8.93;;;;;;;;;;5068907;28;20288;-81
2023/04/19 02:24:13;;;;;;;9.87;8.87;;;;;;;;;;5067148;28;20393;-81
2023/04/19 02:26:39;;;;;;;12.00;9.63;;;;;;;;;;5067987;28;20710;-81
2023/04/19 02:29:05;;;;;;;12.70;10.03;;;;;;;;;;5067101;28;20273;-80
2023/04/19 02:31:31;;;;;;;10.43;9.43;;;;;;;;;;5067843;28;20161;-80
2023/04/19 02:33:57;;;;;;;12.97;11.03;;;;;;;;;;5067323;28;20188;-80
2023/04/19 02:36:23;;;;;;;13.33;11.83;;;;;;;;;;5067228;28;20628;-80
2023/04/19 02:38:49;;;;;;;16.60;13.37;;;;;;;;;;5068156;28;20213;-80
2023/04/19 02:41:15;;;;;;;14.20;12.63;;;;;;;;;;5066986;28;20731;-80
2023/04/19 02:43:41;;;;;;;15.67;14.07;;;;;;;;;;5067904;28;20173;-80
2023/04/19 02:46:07;;;;;;;13.07;11.77;;;;;;;;;;5067675;28;20185;-80
2023/04/19 02:48:33;;;;;;;15.30;13.70;;;;;;;;;;5067589;28;20229;-80
2023/04/19 02:50:59;;;;;;;14.17;12.50;;;;;;;;;;5067453;28;20720;-80
2023/04/19 02:53:25;;;;;;;17.10;13.53;;;;;;;;;;5067097;28;20179;-80
2023/04/19 02:55:51;;;;;;;16.57;13.97;;;;;;;;;;5068129;28;20169;-80
2023/04/19 02:58:17;;;;;;;14.10;12.80;;;;;;;;;;5066081;28;20177;-80
2023/04/19 03:00:43;;;;;;;14.00;12.60;;;;;;;;;;5067599;28;20214;-80
2023/04/19 03:03:10;;;;;;;16.67;13.00;;;;;;;;;;5066316;28;20188;-80
2023/04/19 03:05:36;;;;;;;16.57;13.97;;;;;;;;;;5066825;28;20182;-81
2023/04/19 03:08:02;;;;;;;15.63;14.03;;;;;;;;;;5067301;28;20181;-81
2023/04/19 03:10:28;;;;;;;17.97;15.13;;;;;;;;;;5067051;28;20205;-80
2023/04/19 03:12:54;;;;;;;16.83;14.73;;;;;;;;;;5066120;28;20613;-80
2023/04/19 03:15:21;;;;;;;17.03;15.23;;;;;;;;;;5068408;28;20186;-81
2023/04/19 03:17:47;;;;;;;15.10;13.50;;;;;;;;;;5068392;28;20189;-80
2023/04/19 03:20:13;;;;;;;15.23;13.73;;;;;;;;;;5069378;28;20625;-80
2023/04/19 03:22:39;;;;;;;16.27;14.67;;;;;;;;;;5068355;28;20713;-80
2023/04/19 03:25:05;;;;;;;17.70;15.90;;;;;;;;;;5070185;28;20966;-80
2023/04/19 03:27:32;;;;;;;16.13;13.90;;;;;;;;;;5070212;28;20617;-80
2023/04/19 03:29:59;;;;;;;18.47;14.87;;;;;;;;;;5070054;28;20251;-81
2023/04/19 03:32:24;;;;;;;18.50;16.60;;;;;;;;;;5071366;28;20178;-80
2023/04/19 03:34:50;;;;;;;17.40;15.40;;;;;;;;;;5071140;28;20184;-79
2023/04/19 03:37:16;;;;;;;20.43;16.20;;;;;;;;;;5071020;28;20579;-80
2023/04/19 03:39:58;;;;;;;22.17;18.13;;;;;;;;;;5070259;28;20304;-80
2023/04/19 03:42:24;;;;;;;20.43;18.23;;;;;;;;;;5069202;28;20222;-81
2023/04/19 03:44:50;;;;;;;18.03;16.13;;;;;;;;;;5071186;28;20181;-80
2023/04/19 03:47:16;;;;;;;18.37;16.40;;;;;;;;;;5069665;28;20204;-80
2023/04/19 03:49:42;;;;;;;18.70;16.70;;;;;;;;;;5070508;28;20609;-80
2023/04/19 03:52:08;;;;;;;21.07;17.27;;;;;;;;;;5069460;28;20170;-80
2023/04/19 03:54:34;;;;;;;20.47;18.20;;;;;;;;;;5069568;28;20618;-80
2023/04/19 03:57:00;;;;;;;19.17;17.07;;;;;;;;;;5069678;28;20177;-80
2023/04/19 03:59:26;;;;;;;19.03;16.37;;;;;;;;;;5069305;28;20226;-80
2023/04/19 04:01:52;;;;;;;19.83;16.90;;;;;;;;;;5070607;28;20169;-80
2023/04/19 04:04:18;;;;;;;21.53;19.20;;;;;;;;;;5069450;28;20169;-80
2023/04/19 04:07:22;;;;;;;19.13;17.13;;;;;;;;;;5068808;28;20181;-80
2023/04/19 04:09:48;;;;;;;18.03;16.13;;;;;;;;;;5069631;28;20232;-80
2023/04/19 04:12:14;;;;;;;21.47;17.90;;;;;;;;;;5069515;28;20173;-82
2023/04/19 04:14:40;;;;;;;23.67;18.13;;;;;;;;;;5068854;28;20183;-81
2023/04/19 04:17:06;;;;;;;20.00;17.23;;;;;;;;;;5070368;28;20194;-81
2023/04/19 04:19:35;;;;;;;19.50;17.17;;;;;;;;;;5068802;28;20273;-80
2023/04/19 04:22:01;;;;;;;21.03;18.07;;;;;;;;;;5069220;28;20343;-81
2023/04/19 04:24:28;;;;;;;24.03;19.67;;;;;;;;;;5068795;28;21676;-81
2023/04/19 04:26:56;;;;;;;21.93;18.57;;;;;;;;;;5068858;28;20184;-81
2023/04/19 04:29:22;;;;;;;24.03;18.33;;;;;;;;;;5067482;28;20211;-81
2023/04/19 04:31:48;;;;;;;20.60;18.40;;;;;;;;;;5069527;28;20177;-80
2023/04/19 04:34:14;;;;;;;22.23;19.83;;;;;;;;;;5068841;28;20679;-80
2023/04/19 04:36:40;;;;;;;19.10;17.10;;;;;;;;;;5065815;28;20295;-80
2023/04/19 04:39:10;;;;;;;20.30;18.20;;;;;;;;;;5068376;28;20216;-80
2023/04/19 04:41:40;;;;;;;20.63;18.43;;;;;;;;;;5067951;28;20189;-80
2023/04/19 04:44:07;;;;;;;23.20;18.90;;;;;;;;;;5069494;28;20207;-82
2023/04/19 04:46:33;;;;;;;22.07;18.43;;;;;;;;;;5067544;28;20596;-82
2023/04/19 04:48:59;;;;;;;21.87;18.60;;;;;;;;;;5068576;28;20266;-81
2023/04/19 04:51:26;;;;;;;24.07;19.53;;;;;;;;;;5068965;28;20177;-82
2023/04/19 04:53:52;;;;;;;21.57;18.93;;;;;;;;;;5068361;28;20620;-81
2023/04/19 04:56:18;;;;;;;18.87;16.87;;;;;;;;;;5068595;28;20644;-81
2023/04/19 04:58:44;;;;;;;17.90;16.00;;;;;;;;;;5069096;28;20834;-81
2023/04/19 05:01:10;;;;;;;21.17;17.07;;;;;;;;;;5067943;28;20184;-81
2023/04/19 05:03:36;;;;;;;19.73;17.17;;;;;;;;;;5069048;28;20398;-81
2023/04/19 05:06:03;;;;;;;22.40;17.40;;;;;;;;;;5068211;28;20289;-81
2023/04/19 05:08:29;;;;;;;21.97;18.33;;;;;;;;;;5067294;28;20165;-81
2023/04/19 05:10:54;;;;;;;19.63;17.53;;;;;;;;;;5068553;28;20350;-81
2023/04/19 05:13:21;;;;;;;19.03;17.03;;;;;;;;;;5067310;28;20657;-81
2023/04/19 05:15:47;;;;;;;19.87;17.27;;;;;;;;;;5066153;28;20175;-82
2023/04/19 05:18:13;;;;;;;19.13;16.43;;;;;;;;;;5067536;28;20258;-81
2023/04/19 05:20:39;;;;;;;16.97;15.17;;;;;;;;;;5066960;28;20318;-81
2023/04/19 05:23:05;;;;;;;19.57;17.47;;;;;;;;;;5068207;28;20301;-82
2023/04/19 05:25:31;;;;;;;27.07;20.27;;;;;;;;;;5066175;28;20183;-82
2023/04/19 05:27:57;;;;;;;24.30;20.70;;;;;;;;;;5066961;28;20185;-82
2023/04/19 05:30:23;;;;;;;29.63;23.33;;;;;;;;;;5067421;28;20218;-82
2023/04/19 05:32:51;;;;;;;23.70;20.53;;;;;;;;;;5068105;28;20189;-82
2023/04/19 05:35:18;;;;;;;21.13;19.00;;;;;;;;;;5068577;28;20656;-81
2023/04/19 05:37:44;;;;;;;22.90;20.23;;;;;;;;;;5069071;28;20716;-86
2023/04/19 05:40:10;;;;;;;23.70;19.90;;;;;;;;;;5069905;28;20263;-84
2023/04/19 05:42:36;;;;;;;17.80;15.87;;;;;;;;;;5071124;28;20177;-81
2023/04/19 05:45:02;;;;;;;16.47;14.77;;;;;;;;;;5070727;28;20227;-82
2023/04/19 05:47:28;;;;;;;15.93;14.33;;;;;;;;;;5069060;28;20172;-86
2023/04/19 05:49:54;;;;;;;17.47;15.60;;;;;;;;;;5069884;28;20572;-86
2023/04/19 05:52:20;;;;;;;16.17;14.57;;;;;;;;;;5069517;28;20260;-90
2023/04/19 05:54:46;;;;;;;15.70;13.93;;;;;;;;;;5068964;28;20628;-87
2023/04/19 05:57:12;;;;;;;17.23;15.27;;;;;;;;;;5071017;28;20184;-88
2023/04/19 05:59:39;;;;;;;17.87;15.97;;;;;;;;;;5068827;28;20200;-82
2023/04/19 06:02:05;;;;;;;18.83;15.60;;;;;;;;;;5070214;28;20173;-85
2023/04/19 06:04:31;;;;;;;16.80;15.00;;;;;;;;;;5069654;28;20168;-82
2023/04/19 06:06:57;;;;;;;15.93;14.13;;;;;;;;;;5069055;28;20587;-87
2023/04/19 06:09:23;;;;;;;17.13;15.43;;;;;;;;;;5069230;28;20201;-88
2023/04/19 06:11:50;;;;;;;15.67;14.17;;;;;;;;;;5070008;28;20246;-83
2023/04/19 06:14:16;;;;;;;16.83;15.07;;;;;;;;;;5069839;28;20656;-84
2023/04/19 06:16:43;;;;;;;14.97;13.47;;;;;;;;;;5069037;28;20224;-87
2023/04/19 06:19:09;;;;;;;15.13;13.73;;;;;;;;;;5069002;28;20176;-85
2023/04/19 06:21:35;;;;;;;15.70;14.10;;;;;;;;;;5068166;28;20502;-85
2023/04/19 06:24:02;;;;;;;15.77;14.17;;;;;;;;;;5069154;28;20225;-89
2023/04/19 06:26:28;;;;;;;14.63;13.23;;;;;;;;;;5070577;28;20165;-83
2023/04/19 06:28:54;;;;;;;14.43;13.03;;;;;;;;;;5069830;28;20264;-85
2023/04/19 06:31:20;;;;;;;17.17;15.47;;;;;;;;;;5068998;28;20283;-83
2023/04/19 06:33:47;;;;;;;16.70;14.93;;;;;;;;;;5069179;28;20669;-85
2023/04/19 06:36:13;;;;;;;15.23;13.30;;;;;;;;;;5067952;28;20531;-84
2023/04/19 06:38:40;;;;;;;16.97;15.03;;;;;;;;;;5068981;28;20648;-82
2023/04/19 06:41:06;;;;;;;15.50;13.90;;;;;;;;;;5069773;28;20177;-87
2023/04/19 06:43:33;;;;;;;15.70;14.07;;;;;;;;;;5068934;28;20235;-86
2023/04/19 06:45:59;;;;;;;15.57;13.97;;;;;;;;;;5069448;28;20177;-86
2023/04/19 06:48:26;;;;;;;18.70;16.07;;;;;;;;;;5068266;28;20181;-87
2023/04/19 06:50:52;;;;;;;19.30;17.20;;;;;;;;;;5068462;28;20205;-87
2023/04/19 06:53:18;;;;;;;19.87;17.67;;;;;;;;;;5072089;28;20181;-85
2023/04/19 06:55:46;;;;;;;20.00;17.90;;;;;;;;;;5073068;28;20177;-86
2023/04/19 06:58:12;;;;;;;18.53;15.77;;;;;;;;;;5073050;28;20238;-84
2023/04/19 07:00:38;;;;;;;20.00;17.77;;;;;;;;;;5072577;28;20185;-81
2023/04/19 07:03:04;;;;;;;17.57;15.60;;;;;;;;;;5072297;28;20188;-88
2023/04/19 07:05:30;;;;;;;17.47;15.67;;;;;;;;;;5072507;28;20252;-87
2023/04/19 07:07:57;;;;;;;20.63;18.43;;;;;;;;;;5073249;28;20177;-88
2023/04/19 07:10:23;;;;;;;21.17;19.10;;;;;;;;;;5072518;28;20245;-85
2023/04/19 07:12:49;;;;;;;19.17;16.93;;;;;;;;;;5072510;28;20177;-83
2023/04/19 07:15:15;;;;;;;19.37;17.43;;;;;;;;;;5071984;28;20234;-83
2023/04/19 07:17:42;;;;;;;19.57;17.67;;;;;;;;;;5072946;28;20169;-89
2023/04/19 07:20:08;;;;;;;23.23;20.17;;;;;;;;;;5072366;28;20176;-84
2023/04/19 07:22:34;;;;;;;23.37;20.87;;;;;;;;;;5072072;28;20223;-86
2023/04/19 07:25:00;;;;;;;23.13;20.67;;;;;;;;;;5073002;28;20173;-83
2023/04/19 07:27:27;;;;;;;23.47;20.30;;;;;;;;;;5072051;28;20185;-86
2023/04/19 07:29:53;;;;;;;23.57;21.07;;;;;;;;;;5072322;28;20219;-86
2023/04/19 07:32:19;;;;;;;21.77;19.43;;;;;;;;;;5074376;28;20176;-85
2023/04/19 07:34:46;;;;;;;22.27;19.93;;;;;;;;;;5071519;28;20173;-85
2023/04/19 07:37:12;;;;;;;22.93;20.50;;;;;;;;;;5072413;28;20704;-84
2023/04/19 07:39:38;;;;;;;25.60;22.20;;;;;;;;;;5071421;28;20203;-85
2023/04/19 07:42:05;;;;;;;23.43;21.03;;;;;;;;;;5070929;28;20648;-87
2023/04/19 07:44:31;;;;;;;25.83;22.27;;;;;;;;;;5073266;28;20176;-83
2023/04/19 07:46:57;;;;;;;22.90;20.43;;;;;;;;;;5073678;28;20213;-85
2023/04/19 07:49:23;;;;;;;20.93;18.40;;;;;;;;;;5071189;28;20228;-85
2023/04/19 07:51:49;;;;;;;20.83;18.50;;;;;;;;;;5072223;28;20212;-85
2023/04/19 07:54:16;;;;;;;22.23;19.93;;;;;;;;;;5072238;28;20231;-85
2023/04/19 07:56:42;;;;;;;23.20;20.73;;;;;;;;;;5071016;28;20200;-82
2023/04/19 07:59:09;;;;;;;23.53;20.97;;;;;;;;;;5070891;28;20188;-86
2023/04/19 08:01:35;;;;;;;23.67;21.23;;;;;;;;;;5070984;28;20235;-86
2023/04/19 08:04:01;;;;;;;22.70;20.30;;;;;;;;;;5071009;28;20184;-87
2023/04/19 08:06:29;;;;;;;26.40;23.53;;;;;;;;;;5072375;28;20176;-83
2023/04/19 08:08:55;;;;;;;24.63;22.00;;;;;;;;;;5067570;28;20173;-82
2023/04/19 08:11:23;;;;;;;28.37;23.57;;;;;;;;;;5071287;28;20180;-86
2023/04/19 08:13:49;;;;;;;25.27;22.63;;;;;;;;;;5069879;28;20188;-86
2023/04/19 08:16:15;;;;;;;25.63;23.03;;;;;;;;;;5071482;28;20173;-87
2023/04/19 08:18:41;;;;;;;26.20;23.17;;;;;;;;;;5070535;28;20169;-85
2023/04/19 08:21:07;;;;;;;26.70;23.83;;;;;;;;;;5070469;28;20180;-83
2023/04/19 08:23:33;;;;;;;29.13;25.00;;;;;;;;;;5070670;28;20595;-86
2023/04/19 08:26:00;;;;;;;28.03;25.07;;;;;;;;;;5070800;28;20177;-84
2023/04/19 08:28:26;;;;;;;32.23;26.17;;;;;;;;;;5068917;28;20271;-87
2023/04/19 08:30:52;;;;;;;35.43;27.47;;;;;;;;;;5070081;28;20288;-84
2023/04/19 08:33:18;;;;;;;35.37;30.27;;;;;;;;;;5069956;28;20203;-84
2023/04/19 08:35:44;;;;;;;31.37;27.50;;;;;;;;;;5070554;28;20172;-81
2023/04/19 08:38:11;;;;;;;27.33;24.40;;;;;;;;;;5071455;28;20165;-83
2023/04/19 08:40:43;;;;;;;27.30;24.10;;;;;;;;;;5070360;28;20188;-83
2023/04/19 08:43:09;;;;;;;33.43;26.50;;;;;;;;;;5070415;28;20192;-86
2023/04/19 08:45:36;;;;;;;26.93;24.00;;;;;;;;;;5069376;28;20260;-83
2023/04/19 08:48:02;;;;;;;28.30;25.13;;;;;;;;;;5069732;28;20178;-83
2023/04/19 08:50:29;;;;;;;29.47;26.47;;;;;;;;;;5071103;28;20207;-86
2023/04/19 08:52:55;;;;;;;29.23;26.13;;;;;;;;;;5069617;28;20772;-85
2023/04/19 08:55:21;;;;;;;24.87;22.17;;;;;;;;;;5070268;28;20183;-83
2023/04/19 08:57:47;;;;;;;24.70;22.30;;;;;;;;;;5069769;28;20211;-80
2023/04/19 09:00:14;;;;;;;24.43;21.93;;;;;;;;;;5068394;28;20230;-84
2023/04/19 09:02:45;;;;;;;19.63;16.30;;;;;;;;;;5070238;28;20166;-85
2023/04/19 09:05:12;;;;;;;16.17;14.60;;;;;;;;;;5069442;28;20625;-85
2023/04/19 09:07:38;;;;;;;16.53;14.83;;;;;;;;;;5069791;28;20599;-85
2023/04/19 09:10:24;;;;;;;16.33;14.47;;;;;;;;;;5070180;28;20207;-87
2023/04/19 09:13:00;;;;;;;18.40;15.80;;;;;;;;;;5068042;28;20228;-85
2023/04/19 09:15:37;;;;;;;14.40;12.83;;;;;;;;;;5068666;28;20660;-82
2023/04/19 09:18:06;;;;;;;13.53;11.77;;;;;;;;;;5069097;28;20628;-85
2023/04/19 09:20:36;;;;;;;13.43;11.83;;;;;;;;;;5069700;28;20166;-86
2023/04/19 09:23:03;;;;;;;13.27;11.97;;;;;;;;;;5069031;28;20243;-82
2023/04/19 09:25:29;;;;;;;12.33;11.10;;;;;;;;;;5069461;28;20165;-86
2023/04/19 09:28:07;;;;;;;13.97;12.50;;;;;;;;;;5069148;28;20187;-83
2023/04/19 09:30:34;;;;;;;16.47;14.67;;;;;;;;;;5069336;28;20273;-81
2023/04/19 09:33:00;;;;;;;15.30;13.70;;;;;;;;;;5069405;28;20172;-85
2023/04/19 09:35:42;;;;;;;13.07;11.73;;;;;;;;;;5071323;28;20177;-81
2023/04/19 09:38:09;;;;;;;13.30;11.80;;;;;;;;;;5069172;28;20204;-84
2023/04/19 09:40:35;;;;;;;11.50;10.30;;;;;;;;;;5070206;28;20185;-86
2023/04/19 09:43:02;;;;;;;12.20;10.93;;;;;;;;;;5069335;28;20184;-82
2023/04/19 09:45:39;;;;;;;11.60;10.40;;;;;;;;;;5068727;28;20204;-86
2023/04/19 09:48:06;;;;;;;11.80;10.70;;;;;;;;;;5068049;28;20169;-84
2023/04/19 09:50:32;;;;;;;14.03;12.10;;;;;;;;;;5069341;28;20200;-81
2023/04/19 09:52:59;;;;;;;14.87;13.47;;;;;;;;;;5069584;28;20180;-83
2023/04/19 09:55:25;;;;;;;15.60;14.03;;;;;;;;;;5068860;28;20629;-82
2023/04/19 09:57:52;;;;;;;15.07;13.67;;;;;;;;;;5069559;28;20177;-84
2023/04/19 10:00:20;;;;;;;19.87;17.90;;;;;;;;;;5068680;28;20690;-86
2023/04/19 10:02:54;;;;;;;23.03;20.70;;;;;;;;;;5068824;28;20169;-85
2023/04/19 10:05:21;;;;;;;20.10;17.87;;;;;;;;;;5069100;28;20264;-86
2023/04/19 10:07:48;;;;;;;19.77;17.83;;;;;;;;;;5068588;28;20187;-86
2023/04/19 10:10:16;;;;;;;18.47;16.67;;;;;;;;;;5068415;28;20656;-86
2023/04/19 10:12:45;;;;;;;19.73;17.73;;;;;;;;;;5069704;28;20625;-82
2023/04/19 10:15:11;;;;;;;19.93;17.83;;;;;;;;;;5068922;28;20207;-85
2023/04/19 10:17:37;;;;;;;19.03;17.13;;;;;;;;;;5070776;28;20244;-82
2023/04/19 10:20:07;;;;;;;14.83;13.07;;;;;;;;;;5068822;28;20193;-81
2023/04/19 10:22:36;;;;;;;14.47;12.97;;;;;;;;;;5069419;28;20220;-81
2023/04/19 10:25:12;;;;;;;15.77;13.10;;;;;;;;;;5067180;28;20242;-81
2023/04/19 10:27:39;;;;;;;15.07;13.43;;;;;;;;;;5070773;28;20251;-85
2023/04/19 10:30:09;;;;;;;16.27;14.57;;;;;;;;;;5072684;28;20200;-85
2023/04/19 10:32:38;;;;;;;17.93;15.63;;;;;;;;;;5073242;28;20188;-80
2023/04/19 10:35:08;;;;;;;17.33;15.30;;;;;;;;;;5072549;28;20180;-84
2023/04/19 10:37:34;;;;;;;18.00;14.03;;;;;;;;;;5072137;28;20184;-85
2023/04/19 10:40:00;;;;;;;14.57;12.70;;;;;;;;;;5072541;28;20637;-84
2023/04/19 10:42:46;;;;;;;12.83;11.57;;;;;;;;;;5072304;28;20177;-87
2023/04/19 10:45:31;;;;;;;14.93;13.17;;;;;;;;;;5071242;28;20173;-84
2023/04/19 10:47:56;;;;;;;19.70;15.87;;;;;;;;;;5073061;28;20201;-86
2023/04/19 10:50:23;;;;;;;18.73;15.73;;;;;;;;;;5072151;28;20902;-84
2023/04/19 10:52:49;;;;;;;13.00;11.70;;;;;;;;;;5072471;28;20641;-80
2023/04/19 10:55:19;;;;;;;12.90;11.47;;;;;;;;;;5071787;28;20185;-85
2023/04/19 10:58:01;;;;;;;12.10;10.47;;;;;;;;;;5071802;28;20181;-86
2023/04/19 11:00:30;;;;;;;14.03;11.47;;;;;;;;;;5070802;28;20204;-82
2023/04/19 11:02:56;;;;;;;12.77;11.57;;;;;;;;;;5071352;28;20173;-82
2023/04/19 11:05:22;;;;;;;14.47;11.53;;;;;;;;;;5070873;28;20179;-80
2023/04/19 11:07:48;;;;;;;14.10;12.57;;;;;;;;;;5070249;28;20177;-83
2023/04/19 11:10:27;;;;;;;14.93;13.13;;;;;;;;;;5070076;28;20200;-82
2023/04/19 11:12:54;;;;;;;14.57;11.83;;;;;;;;;;5069788;28;20443;-82
2023/04/19 11:15:22;;;;;;;13.17;11.40;;;;;;;;;;5069962;28;20657;-82
2023/04/19 11:17:50;;;;;;;13.10;11.80;;;;;;;;;;5071072;28;20209;-82
2023/04/19 11:20:16;;;;;;;15.37;11.67;;;;;;;;;;5070029;28;20192;-83
2023/04/19 11:22:46;;;;;;;12.70;11.27;;;;;;;;;;5072185;28;20270;-82
2023/04/19 11:25:12;;;;;;;13.00;11.63;;;;;;;;;;5071731;28;20180;-85
2023/04/19 11:27:39;;;;;;;13.27;11.93;;;;;;;;;;5070668;28;20625;-86
2023/04/19 11:30:10;;;;;;;13.47;12.17;;;;;;;;;;5072215;28;20212;-83
2023/04/19 11:32:36;;;;;;;12.60;11.30;;;;;;;;;;5069947;28;20169;-85
2023/04/19 11:35:08;;;;;;;12.57;11.40;;;;;;;;;;5071507;28;20169;-82
2023/04/19 11:37:35;;;;;;;14.20;11.97;;;;;;;;;;5071854;28;20177;-85
2023/04/19 11:40:01;;;;;;;13.27;11.07;;;;;;;;;;5071204;28;20231;-83
2023/04/19 11:42:27;;;;;;;13.40;10.53;;;;;;;;;;5070440;28;20165;-87
2023/04/19 11:44:56;;;;;;;13.07;11.27;;;;;;;;;;5071857;28;20177;-81
2023/04/19 11:47:22;;;;;;;14.07;11.00;;;;;;;;;;5070969;28;20205;-85
2023/04/19 11:49:48;;;;;;;12.40;11.03;;;;;;;;;;5070914;28;20544;-82
2023/04/19 11:52:20;;;;;;;13.73;11.53;;;;;;;;;;5071429;28;20614;-85
2023/04/19 11:54:46;;;;;;;13.70;10.70;;;;;;;;;;5070446;28;20299;-83
2023/04/19 11:57:12;;;;;;;11.90;10.50;;;;;;;;;;5071948;28;20561;-84
2023/04/19 11:59:38;;;;;;;12.50;10.87;;;;;;;;;;5072034;28;20177;-84
2023/04/19 12:02:08;;;;;;;12.27;10.97;;;;;;;;;;5071257;28;20177;-86
2023/04/19 12:04:35;;;;;;;11.10;10.00;;;;;;;;;;5070555;28;20173;-84
2023/04/19 12:07:01;;;;;;;12.23;10.93;;;;;;;;;;5070805;28;20173;-85
2023/04/19 12:09:27;;;;;;;15.17;11.47;;;;;;;;;;5070168;28;20192;-82
2023/04/19 12:11:53;;;;;;;12.53;11.23;;;;;;;;;;5070725;28;20264;-82
2023/04/19 12:14:23;;;;;;;14.83;13.23;;;;;;;;;;5069166;28;20177;-82
2023/04/19 12:17:24;;;;;;;12.83;11.53;;;;;;;;;;5069289;28;20203;-82
2023/04/19 12:19:51;;;;;;;14.43;11.10;;;;;;;;;;5050241;28;20173;-82
2023/04/19 12:22:19;;;;;;;12.47;10.03;;;;;;;;;;5050200;28;20227;-82
2023/04/19 12:24:45;;;;;;;13.10;10.53;;;;;;;;;;5042886;28;20176;-82
2023/04/19 12:27:11;;;;;;;12.33;10.53;;;;;;;;;;5051521;28;20201;-82
2023/04/19 12:29:38;;;;;;;11.37;9.70;;;;;;;;;;5049697;28;20216;-82
2023/04/19 12:32:04;;;;;;;14.00;10.53;;;;;;;;;;5050184;28;20177;-81
2023/04/19 12:34:30;;;;;;;12.83;10.97;;;;;;;;;;5050037;28;20197;-81
2023/04/19 12:36:56;;;;;;;14.67;11.37;;;;;;;;;;5050930;28;20224;-82
2023/04/19 12:39:23;;;;;;;11.33;10.23;;;;;;;;;;5049562;28;20215;-80
2023/04/19 12:41:50;;;;;;;13.27;11.97;;;;;;;;;;5050601;28;20173;-82
2023/04/19 12:44:16;;;;;;;14.13;12.70;;;;;;;;;;5042569;28;20173;-83
2023/04/19 12:46:42;;;;;;;11.67;10.47;;;;;;;;;;5048847;28;20251;-82
2023/04/19 12:49:08;;;;;;;13.90;11.80;;;;;;;;;;5048191;28;20180;-82
2023/04/19 12:51:35;;;;;;;14.93;13.33;;;;;;;;;;5049699;28;20315;-82
2023/04/19 12:54:01;;;;;;;17.30;12.87;;;;;;;;;;5059356;28;20323;-82
2023/04/19 12:56:27;;;;;;;17.87;13.87;;;;;;;;;;5068852;28;20172;-82
2023/04/19 12:58:53;;;;;;;18.50;12.60;;;;;;;;;;5069155;28;20223;-82
2023/04/19 13:01:19;;;;;;;16.67;11.43;;;;;;;;;;5067890;28;20197;-81
2023/04/19 13:03:45;;;;;;;12.27;11.03;;;;;;;;;;5067499;28;20204;-83
2023/04/19 13:06:14;;;;;;;15.30;11.57;;;;;;;;;;5068368;28;20165;-82
2023/04/19 13:08:40;;;;;;;15.93;12.70;;;;;;;;;;5067507;28;20708;-82
2023/04/19 13:11:06;;;;;;;12.30;11.00;;;;;;;;;;5068188;28;20223;-82
2023/04/19 13:13:34;;;;;;;13.13;11.23;;;;;;;;;;5067757;28;20185;-82
2023/04/19 13:16:00;;;;;;;15.87;11.97;;;;;;;;;;5067712;28;20247;-82
2023/04/19 13:18:26;;;;;;;12.63;11.27;;;;;;;;;;5069220;28;20172;-82
2023/04/19 13:20:52;;;;;;;22.83;18.20;;;;;;;;;;5067064;28;20169;-82
2023/04/19 13:23:19;;;;;;;16.63;11.43;;;;;;;;;;5066043;28;20236;-82
2023/04/19 13:25:46;;;;;;;15.43;13.40;;;;;;;;;;5066407;28;20223;-82
2023/04/19 13:28:12;;;;;;;14.60;10.40;;;;;;;;;;5067143;28;20176;-82
2023/04/19 13:30:38;;;;;;;13.17;11.27;;;;;;;;;;5065410;28;20327;-83
2023/04/19 13:33:04;;;;;;;12.90;10.87;;;;;;;;;;5069714;28;20181;-83
2023/04/19 13:35:30;;;;;;;13.00;11.60;;;;;;;;;;5066186;28;20581;-84
2023/04/19 13:37:56;;;;;;;13.70;11.27;;;;;;;;;;5065910;28;20207;-83
2023/04/19 13:40:26;;;;;;;14.63;10.93;;;;;;;;;;5065683;28;20221;-83
2023/04/19 13:42:53;;;;;;;15.53;10.90;;;;;;;;;;5063228;28;20193;-86
2023/04/19 13:45:19;;;;;;;14.07;11.57;;;;;;;;;;5068108;28;20181;-87
2023/04/19 13:47:46;;;;;;;14.23;10.33;;;;;;;;;;5067548;28;20265;-83
2023/04/19 13:50:13;;;;;;;17.73;10.90;;;;;;;;;;5067121;28;20201;-84
2023/04/19 13:52:39;;;;;;;12.60;10.77;;;;;;;;;;5069040;28;20181;-86
2023/04/19 13:55:05;;;;;;;13.27;11.03;;;;;;;;;;5065423;28;20647;-87
2023/04/19 13:57:31;;;;;;;15.07;10.30;;;;;;;;;;5064524;28;20181;-86
2023/04/19 13:59:57;;;;;;;14.47;10.57;;;;;;;;;;5067638;28;20562;-86
2023/04/19 14:02:23;;;;;;;12.30;10.73;;;;;;;;;;5069239;28;20181;-81
2023/04/19 14:04:49;;;;;;;12.87;9.83;;;;;;;;;;5068980;28;20624;-84
2023/04/19 14:07:15;;;;;;;10.57;9.43;;;;;;;;;;5068618;28;20230;-89
2023/04/19 14:09:41;;;;;;;10.87;9.70;;;;;;;;;;5069709;28;20224;-86
2023/04/19 14:12:08;;;;;;;10.73;9.63;;;;;;;;;;5069865;28;20570;-89
2023/04/19 14:14:34;;;;;;;10.33;9.30;;;;;;;;;;5068805;28;20180;-88
2023/04/19 14:17:00;;;;;;;10.97;9.20;;;;;;;;;;5069310;28;20634;-87